sensor_id;sensor_type;location;lat;lon;timestamp;P1;durP1;ratioP1;P2;durP2;ratioP2
56435;SDS011;42335;44.872;20.658;2024-03-22T00:00:44;101.00;;;54.45;;
56435;SDS011;42335;44.872;20.658;2024-03-22T00:03:10;100.93;;;53.25;;
56435;SDS011;42335;44.872;20.658;2024-03-22T00:05:36;91.30;;;54.42;;
56435;SDS011;42335;44.872;20.658;2024-03-22T00:08:02;96.30;;;52.75;;
56435;SDS011;42335;44.872;20.658;2024-03-22T00:10:28;91.00;;;53.17;;
56435;SDS011;42335;44.872;20.658;2024-03-22T00:12:54;93.13;;;54.90;;
56435;SDS011;42335;44.872;20.658;2024-03-22T00:15:19;106.00;;;57.53;;
56435;SDS011;42335;44.872;20.658;2024-03-22T00:17:45;138.05;;;71.38;;
56435;SDS011;42335;44.872;20.658;2024-03-22T00:20:11;118.70;;;63.72;;
56435;SDS011;42335;44.872;20.658;2024-03-22T00:22:37;119.57;;;65.35;;
56435;SDS011;42335;44.872;20.658;2024-03-22T00:25:03;124.13;;;67.35;;
56435;SDS011;42335;44.872;20.658;2024-03-22T00:27:30;104.20;;;57.72;;
56435;SDS011;42335;44.872;20.658;2024-03-22T00:29:55;98.53;;;51.97;;
56435;SDS011;42335;44.872;20.658;2024-03-22T00:32:21;86.63;;;48.97;;
56435;SDS011;42335;44.872;20.658;2024-03-22T00:34:47;70.78;;;40.08;;
56435;SDS011;42335;44.872;20.658;2024-03-22T00:37:13;72.00;;;39.38;;
56435;SDS011;42335;44.872;20.658;2024-03-22T00:39:39;78.28;;;44.20;;
56435;SDS011;42335;44.872;20.658;2024-03-22T00:42:04;83.60;;;48.08;;
56435;SDS011;42335;44.872;20.658;2024-03-22T00:44:30;93.05;;;48.78;;
56435;SDS011;42335;44.872;20.658;2024-03-22T00:46:56;85.40;;;48.65;;
56435;SDS011;42335;44.872;20.658;2024-03-22T00:49:22;84.25;;;47.55;;
56435;SDS011;42335;44.872;20.658;2024-03-22T00:51:47;86.72;;;47.65;;
56435;SDS011;42335;44.872;20.658;2024-03-22T00:54:13;74.50;;;42.08;;
56435;SDS011;42335;44.872;20.658;2024-03-22T00:56:39;73.70;;;41.13;;
56435;SDS011;42335;44.872;20.658;2024-03-22T00:59:05;70.95;;;43.25;;
56435;SDS011;42335;44.872;20.658;2024-03-22T01:01:31;75.10;;;43.22;;
56435;SDS011;42335;44.872;20.658;2024-03-22T01:03:57;75.82;;;42.60;;
56435;SDS011;42335;44.872;20.658;2024-03-22T01:06:23;73.10;;;40.78;;
56435;SDS011;42335;44.872;20.658;2024-03-22T01:08:50;70.40;;;41.78;;
56435;SDS011;42335;44.872;20.658;2024-03-22T01:11:17;67.65;;;41.40;;
56435;SDS011;42335;44.872;20.658;2024-03-22T01:13:43;76.57;;;43.75;;
56435;SDS011;42335;44.872;20.658;2024-03-22T01:16:09;87.32;;;49.58;;
56435;SDS011;42335;44.872;20.658;2024-03-22T01:18:35;92.88;;;44.63;;
56435;SDS011;42335;44.872;20.658;2024-03-22T01:21:01;80.18;;;43.72;;
56435;SDS011;42335;44.872;20.658;2024-03-22T01:23:27;75.53;;;43.33;;
56435;SDS011;42335;44.872;20.658;2024-03-22T01:25:53;77.88;;;40.22;;
56435;SDS011;42335;44.872;20.658;2024-03-22T01:28:19;69.90;;;38.28;;
56435;SDS011;42335;44.872;20.658;2024-03-22T01:30:45;71.32;;;38.83;;
56435;SDS011;42335;44.872;20.658;2024-03-22T01:33:11;71.85;;;36.28;;
56435;SDS011;42335;44.872;20.658;2024-03-22T01:35:37;62.40;;;33.42;;
56435;SDS011;42335;44.872;20.658;2024-03-22T01:38:02;59.42;;;31.83;;
56435;SDS011;42335;44.872;20.658;2024-03-22T01:40:28;49.53;;;27.30;;
56435;SDS011;42335;44.872;20.658;2024-03-22T01:42:57;54.25;;;28.13;;
56435;SDS011;42335;44.872;20.658;2024-03-22T01:45:23;49.45;;;27.80;;
56435;SDS011;42335;44.872;20.658;2024-03-22T01:47:52;53.83;;;25.25;;
56435;SDS011;42335;44.872;20.658;2024-03-22T01:50:23;45.92;;;25.33;;
56435;SDS011;42335;44.872;20.658;2024-03-22T01:52:49;45.95;;;24.17;;
56435;SDS011;42335;44.872;20.658;2024-03-22T01:55:16;54.15;;;26.17;;
56435;SDS011;42335;44.872;20.658;2024-03-22T01:57:42;50.83;;;25.48;;
56435;SDS011;42335;44.872;20.658;2024-03-22T02:00:09;44.55;;;25.27;;
56435;SDS011;42335;44.872;20.658;2024-03-22T02:02:35;56.83;;;26.98;;
56435;SDS011;42335;44.872;20.658;2024-03-22T02:07:41;46.67;;;27.15;;
56435;SDS011;42335;44.872;20.658;2024-03-22T02:10:07;51.35;;;28.00;;
56435;SDS011;42335;44.872;20.658;2024-03-22T02:12:36;52.67;;;29.70;;
56435;SDS011;42335;44.872;20.658;2024-03-22T02:15:02;51.13;;;28.67;;
56435;SDS011;42335;44.872;20.658;2024-03-22T02:17:29;54.45;;;28.75;;
56435;SDS011;42335;44.872;20.658;2024-03-22T02:19:54;54.67;;;29.95;;
56435;SDS011;42335;44.872;20.658;2024-03-22T02:22:20;66.60;;;35.10;;
56435;SDS011;42335;44.872;20.658;2024-03-22T02:24:46;59.50;;;32.03;;
56435;SDS011;42335;44.872;20.658;2024-03-22T02:27:12;71.35;;;32.35;;
56435;SDS011;42335;44.872;20.658;2024-03-22T02:29:38;53.03;;;31.13;;
56435;SDS011;42335;44.872;20.658;2024-03-22T02:32:04;67.95;;;32.97;;
56435;SDS011;42335;44.872;20.658;2024-03-22T02:34:31;62.47;;;35.40;;
56435;SDS011;42335;44.872;20.658;2024-03-22T02:36:57;70.13;;;36.28;;
56435;SDS011;42335;44.872;20.658;2024-03-22T02:39:22;69.80;;;37.75;;
56435;SDS011;42335;44.872;20.658;2024-03-22T02:41:50;71.45;;;38.70;;
56435;SDS011;42335;44.872;20.658;2024-03-22T02:44:16;70.00;;;39.42;;
56435;SDS011;42335;44.872;20.658;2024-03-22T02:46:42;77.75;;;39.28;;
56435;SDS011;42335;44.872;20.658;2024-03-22T02:49:08;78.28;;;41.13;;
56435;SDS011;42335;44.872;20.658;2024-03-22T02:51:33;80.07;;;42.90;;
56435;SDS011;42335;44.872;20.658;2024-03-22T02:53:59;71.47;;;41.67;;
56435;SDS011;42335;44.872;20.658;2024-03-22T02:56:27;81.95;;;43.88;;
56435;SDS011;42335;44.872;20.658;2024-03-22T02:58:53;81.95;;;42.58;;
56435;SDS011;42335;44.872;20.658;2024-03-22T03:01:19;87.45;;;46.63;;
56435;SDS011;42335;44.872;20.658;2024-03-22T03:03:44;82.43;;;42.70;;
56435;SDS011;42335;44.872;20.658;2024-03-22T03:06:10;74.60;;;43.40;;
56435;SDS011;42335;44.872;20.658;2024-03-22T03:08:38;76.13;;;41.03;;
56435;SDS011;42335;44.872;20.658;2024-03-22T03:11:04;88.13;;;43.63;;
56435;SDS011;42335;44.872;20.658;2024-03-22T03:13:30;78.53;;;42.38;;
56435;SDS011;42335;44.872;20.658;2024-03-22T03:15:57;87.95;;;44.90;;
56435;SDS011;42335;44.872;20.658;2024-03-22T03:18:23;82.43;;;44.42;;
56435;SDS011;42335;44.872;20.658;2024-03-22T03:20:48;89.85;;;45.10;;
56435;SDS011;42335;44.872;20.658;2024-03-22T03:23:14;84.25;;;43.70;;
56435;SDS011;42335;44.872;20.658;2024-03-22T03:25:40;75.53;;;42.97;;
56435;SDS011;42335;44.872;20.658;2024-03-22T03:28:06;72.55;;;43.05;;
56435;SDS011;42335;44.872;20.658;2024-03-22T03:30:33;80.60;;;42.92;;
56435;SDS011;42335;44.872;20.658;2024-03-22T03:33:02;79.38;;;43.25;;
56435;SDS011;42335;44.872;20.658;2024-03-22T03:35:27;71.47;;;42.95;;
56435;SDS011;42335;44.872;20.658;2024-03-22T03:37:54;73.45;;;42.20;;
56435;SDS011;42335;44.872;20.658;2024-03-22T03:40:20;78.22;;;41.10;;
56435;SDS011;42335;44.872;20.658;2024-03-22T03:42:49;76.68;;;43.40;;
56435;SDS011;42335;44.872;20.658;2024-03-22T03:45:15;72.40;;;41.67;;
56435;SDS011;42335;44.872;20.658;2024-03-22T03:47:41;67.90;;;41.50;;
56435;SDS011;42335;44.872;20.658;2024-03-22T03:50:07;74.78;;;40.97;;
56435;SDS011;42335;44.872;20.658;2024-03-22T03:52:34;64.78;;;37.83;;
56435;SDS011;42335;44.872;20.658;2024-03-22T03:54:59;71.32;;;38.65;;
56435;SDS011;42335;44.872;20.658;2024-03-22T03:57:25;73.88;;;37.65;;
56435;SDS011;42335;44.872;20.658;2024-03-22T03:59:51;66.50;;;36.95;;
56435;SDS011;42335;44.872;20.658;2024-03-22T04:02:17;73.40;;;37.05;;
56435;SDS011;42335;44.872;20.658;2024-03-22T04:04:43;60.42;;;33.67;;
56435;SDS011;42335;44.872;20.658;2024-03-22T04:07:09;76.57;;;34.65;;
56435;SDS011;42335;44.872;20.658;2024-03-22T04:09:34;72.68;;;37.78;;
56435;SDS011;42335;44.872;20.658;2024-03-22T04:12:00;68.13;;;36.63;;
56435;SDS011;42335;44.872;20.658;2024-03-22T04:14:26;58.78;;;35.13;;
56435;SDS011;42335;44.872;20.658;2024-03-22T04:16:52;69.45;;;36.35;;
56435;SDS011;42335;44.872;20.658;2024-03-22T04:19:21;63.47;;;37.15;;
56435;SDS011;42335;44.872;20.658;2024-03-22T04:21:47;65.20;;;36.10;;
56435;SDS011;42335;44.872;20.658;2024-03-22T04:24:14;62.55;;;33.08;;
56435;SDS011;42335;44.872;20.658;2024-03-22T04:26:40;54.88;;;32.95;;
56435;SDS011;42335;44.872;20.658;2024-03-22T04:29:06;62.83;;;33.20;;
56435;SDS011;42335;44.872;20.658;2024-03-22T04:31:32;56.80;;;30.33;;
56435;SDS011;42335;44.872;20.658;2024-03-22T04:33:59;56.15;;;31.00;;
56435;SDS011;42335;44.872;20.658;2024-03-22T04:36:25;54.63;;;30.40;;
56435;SDS011;42335;44.872;20.658;2024-03-22T04:38:51;61.17;;;30.45;;
56435;SDS011;42335;44.872;20.658;2024-03-22T04:41:17;60.15;;;32.10;;
56435;SDS011;42335;44.872;20.658;2024-03-22T04:43:42;58.20;;;30.80;;
56435;SDS011;42335;44.872;20.658;2024-03-22T04:46:08;55.00;;;31.50;;
56435;SDS011;42335;44.872;20.658;2024-03-22T04:48:34;53.72;;;29.80;;
56435;SDS011;42335;44.872;20.658;2024-03-22T04:51:00;53.42;;;30.08;;
56435;SDS011;42335;44.872;20.658;2024-03-22T04:53:26;52.13;;;28.92;;
56435;SDS011;42335;44.872;20.658;2024-03-22T04:55:52;64.53;;;33.15;;
56435;SDS011;42335;44.872;20.658;2024-03-22T04:58:18;61.88;;;31.23;;
56435;SDS011;42335;44.872;20.658;2024-03-22T05:00:46;57.22;;;34.28;;
56435;SDS011;42335;44.872;20.658;2024-03-22T05:03:12;60.92;;;32.60;;
56435;SDS011;42335;44.872;20.658;2024-03-22T05:05:38;62.28;;;31.30;;
56435;SDS011;42335;44.872;20.658;2024-03-22T05:08:06;52.58;;;33.60;;
56435;SDS011;42335;44.872;20.658;2024-03-22T05:10:32;238.93;;;149.15;;
56435;SDS011;42335;44.872;20.658;2024-03-22T05:12:59;184.98;;;131.77;;
56435;SDS011;42335;44.872;20.658;2024-03-22T05:15:25;120.47;;;61.05;;
56435;SDS011;42335;44.872;20.658;2024-03-22T05:17:51;266.08;;;181.05;;
56435;SDS011;42335;44.872;20.658;2024-03-22T05:20:18;71.78;;;37.65;;
56435;SDS011;42335;44.872;20.658;2024-03-22T05:22:44;56.20;;;32.83;;
56435;SDS011;42335;44.872;20.658;2024-03-22T05:25:10;63.10;;;35.10;;
56435;SDS011;42335;44.872;20.658;2024-03-22T05:27:37;64.45;;;35.17;;
56435;SDS011;42335;44.872;20.658;2024-03-22T05:30:03;60.83;;;36.05;;
56435;SDS011;42335;44.872;20.658;2024-03-22T05:32:29;62.97;;;33.63;;
56435;SDS011;42335;44.872;20.658;2024-03-22T05:34:55;68.43;;;36.97;;
56435;SDS011;42335;44.872;20.658;2024-03-22T05:37:21;72.95;;;37.08;;
56435;SDS011;42335;44.872;20.658;2024-03-22T05:39:48;66.15;;;34.90;;
56435;SDS011;42335;44.872;20.658;2024-03-22T05:42:14;66.18;;;36.20;;
56435;SDS011;42335;44.872;20.658;2024-03-22T05:44:40;72.32;;;36.30;;
56435;SDS011;42335;44.872;20.658;2024-03-22T05:47:06;68.45;;;37.63;;
56435;SDS011;42335;44.872;20.658;2024-03-22T05:49:31;67.25;;;38.03;;
56435;SDS011;42335;44.872;20.658;2024-03-22T05:51:57;69.28;;;38.05;;
56435;SDS011;42335;44.872;20.658;2024-03-22T05:54:23;62.13;;;36.53;;
56435;SDS011;42335;44.872;20.658;2024-03-22T05:56:49;55.05;;;31.80;;
56435;SDS011;42335;44.872;20.658;2024-03-22T05:59:15;61.42;;;34.42;;
56435;SDS011;42335;44.872;20.658;2024-03-22T06:01:40;66.03;;;33.20;;
56435;SDS011;42335;44.872;20.658;2024-03-22T06:04:06;62.92;;;35.95;;
56435;SDS011;42335;44.872;20.658;2024-03-22T06:06:33;60.15;;;35.10;;
56435;SDS011;42335;44.872;20.658;2024-03-22T06:09:00;56.33;;;31.52;;
56435;SDS011;42335;44.872;20.658;2024-03-22T06:11:28;49.78;;;32.03;;
56435;SDS011;42335;44.872;20.658;2024-03-22T06:13:57;277.90;;;194.15;;
56435;SDS011;42335;44.872;20.658;2024-03-22T06:16:23;89.88;;;56.60;;
56435;SDS011;42335;44.872;20.658;2024-03-22T06:18:49;63.30;;;31.58;;
56435;SDS011;42335;44.872;20.658;2024-03-22T06:21:15;65.32;;;31.58;;
56435;SDS011;42335;44.872;20.658;2024-03-22T06:23:46;55.40;;;32.50;;
56435;SDS011;42335;44.872;20.658;2024-03-22T06:26:16;57.50;;;32.10;;
56435;SDS011;42335;44.872;20.658;2024-03-22T06:28:42;55.13;;;31.50;;
56435;SDS011;42335;44.872;20.658;2024-03-22T06:31:08;49.35;;;31.58;;
56435;SDS011;42335;44.872;20.658;2024-03-22T06:33:34;93.68;;;62.13;;
56435;SDS011;42335;44.872;20.658;2024-03-22T06:36:00;54.63;;;33.50;;
56435;SDS011;42335;44.872;20.658;2024-03-22T06:38:28;58.25;;;33.05;;
56435;SDS011;42335;44.872;20.658;2024-03-22T06:40:54;55.97;;;32.53;;
56435;SDS011;42335;44.872;20.658;2024-03-22T06:43:20;56.80;;;34.90;;
56435;SDS011;42335;44.872;20.658;2024-03-22T06:45:46;62.25;;;34.17;;
56435;SDS011;42335;44.872;20.658;2024-03-22T06:48:12;71.10;;;34.05;;
56435;SDS011;42335;44.872;20.658;2024-03-22T06:50:40;57.60;;;31.77;;
56435;SDS011;42335;44.872;20.658;2024-03-22T06:53:06;45.47;;;28.92;;
56435;SDS011;42335;44.872;20.658;2024-03-22T06:55:32;41.55;;;24.42;;
56435;SDS011;42335;44.872;20.658;2024-03-22T06:57:58;29.90;;;20.33;;
56435;SDS011;42335;44.872;20.658;2024-03-22T07:00:24;37.45;;;22.98;;
56435;SDS011;42335;44.872;20.658;2024-03-22T07:02:49;37.00;;;21.10;;
56435;SDS011;42335;44.872;20.658;2024-03-22T07:05:15;36.08;;;20.85;;
56435;SDS011;42335;44.872;20.658;2024-03-22T07:07:41;37.45;;;23.20;;
56435;SDS011;42335;44.872;20.658;2024-03-22T07:10:08;33.50;;;22.58;;
56435;SDS011;42335;44.872;20.658;2024-03-22T07:12:34;33.42;;;20.85;;
56435;SDS011;42335;44.872;20.658;2024-03-22T07:15:00;36.70;;;23.60;;
56435;SDS011;42335;44.872;20.658;2024-03-22T07:17:27;33.97;;;23.58;;
56435;SDS011;42335;44.872;20.658;2024-03-22T07:19:54;36.90;;;22.67;;
56435;SDS011;42335;44.872;20.658;2024-03-22T07:22:21;29.70;;;19.60;;
56435;SDS011;42335;44.872;20.658;2024-03-22T07:24:47;26.25;;;18.38;;
56435;SDS011;42335;44.872;20.658;2024-03-22T07:27:14;25.38;;;18.17;;
56435;SDS011;42335;44.872;20.658;2024-03-22T07:29:46;26.13;;;17.33;;
56435;SDS011;42335;44.872;20.658;2024-03-22T07:32:12;26.30;;;17.30;;
56435;SDS011;42335;44.872;20.658;2024-03-22T07:34:38;29.90;;;16.50;;
56435;SDS011;42335;44.872;20.658;2024-03-22T07:37:04;31.13;;;18.35;;
56435;SDS011;42335;44.872;20.658;2024-03-22T07:39:30;26.10;;;17.75;;
56435;SDS011;42335;44.872;20.658;2024-03-22T07:41:56;30.73;;;17.77;;
56435;SDS011;42335;44.872;20.658;2024-03-22T07:44:22;23.52;;;16.95;;
56435;SDS011;42335;44.872;20.658;2024-03-22T07:46:53;34.05;;;17.63;;
56435;SDS011;42335;44.872;20.658;2024-03-22T07:49:20;30.50;;;19.50;;
56435;SDS011;42335;44.872;20.658;2024-03-22T07:51:45;28.92;;;20.30;;
56435;SDS011;42335;44.872;20.658;2024-03-22T07:54:11;32.42;;;18.73;;
56435;SDS011;42335;44.872;20.658;2024-03-22T07:56:37;34.88;;;19.35;;
56435;SDS011;42335;44.872;20.658;2024-03-22T07:59:03;32.40;;;19.95;;
56435;SDS011;42335;44.872;20.658;2024-03-22T08:01:29;38.60;;;20.75;;
56435;SDS011;42335;44.872;20.658;2024-03-22T08:03:56;33.63;;;20.33;;
56435;SDS011;42335;44.872;20.658;2024-03-22T08:06:21;27.80;;;19.40;;
56435;SDS011;42335;44.872;20.658;2024-03-22T08:08:47;33.28;;;21.60;;
56435;SDS011;42335;44.872;20.658;2024-03-22T08:11:13;37.03;;;22.70;;
56435;SDS011;42335;44.872;20.658;2024-03-22T08:13:39;31.30;;;22.02;;
56435;SDS011;42335;44.872;20.658;2024-03-22T08:16:05;27.63;;;20.02;;
56435;SDS011;42335;44.872;20.658;2024-03-22T08:18:31;35.47;;;21.13;;
56435;SDS011;42335;44.872;20.658;2024-03-22T08:20:58;26.60;;;18.33;;
56435;SDS011;42335;44.872;20.658;2024-03-22T08:23:24;38.13;;;20.05;;
56435;SDS011;42335;44.872;20.658;2024-03-22T08:25:50;25.95;;;17.67;;
56435;SDS011;42335;44.872;20.658;2024-03-22T08:28:16;26.73;;;17.83;;
56435;SDS011;42335;44.872;20.658;2024-03-22T08:30:42;26.60;;;18.02;;
56435;SDS011;42335;44.872;20.658;2024-03-22T08:33:09;29.90;;;17.48;;
56435;SDS011;42335;44.872;20.658;2024-03-22T08:35:36;28.05;;;17.52;;
56435;SDS011;42335;44.872;20.658;2024-03-22T08:38:02;26.05;;;17.35;;
56435;SDS011;42335;44.872;20.658;2024-03-22T08:40:29;34.30;;;17.83;;
56435;SDS011;42335;44.872;20.658;2024-03-22T08:42:55;28.42;;;17.48;;
56435;SDS011;42335;44.872;20.658;2024-03-22T08:45:21;27.55;;;16.13;;
56435;SDS011;42335;44.872;20.658;2024-03-22T08:47:46;22.98;;;15.85;;
56435;SDS011;42335;44.872;20.658;2024-03-22T08:50:12;23.23;;;14.73;;
56435;SDS011;42335;44.872;20.658;2024-03-22T08:52:38;22.17;;;15.25;;
56435;SDS011;42335;44.872;20.658;2024-03-22T08:55:04;24.42;;;15.85;;
56435;SDS011;42335;44.872;20.658;2024-03-22T08:57:32;27.05;;;16.58;;
56435;SDS011;42335;44.872;20.658;2024-03-22T08:59:58;26.55;;;16.13;;
56435;SDS011;42335;44.872;20.658;2024-03-22T09:02:24;20.13;;;14.23;;
56435;SDS011;42335;44.872;20.658;2024-03-22T09:04:50;23.33;;;14.52;;
56435;SDS011;42335;44.872;20.658;2024-03-22T09:07:16;27.15;;;15.10;;
56435;SDS011;42335;44.872;20.658;2024-03-22T09:09:42;23.45;;;14.60;;
56435;SDS011;42335;44.872;20.658;2024-03-22T09:12:08;21.20;;;14.60;;
56435;SDS011;42335;44.872;20.658;2024-03-22T09:14:34;22.20;;;15.45;;
56435;SDS011;42335;44.872;20.658;2024-03-22T09:17:00;30.95;;;15.45;;
56435;SDS011;42335;44.872;20.658;2024-03-22T09:19:26;23.95;;;16.25;;
56435;SDS011;42335;44.872;20.658;2024-03-22T09:21:52;22.13;;;14.98;;
56435;SDS011;42335;44.872;20.658;2024-03-22T09:24:18;22.40;;;14.63;;
56435;SDS011;42335;44.872;20.658;2024-03-22T09:26:45;23.88;;;15.05;;
56435;SDS011;42335;44.872;20.658;2024-03-22T09:29:12;24.70;;;15.10;;
56435;SDS011;42335;44.872;20.658;2024-03-22T09:31:38;27.05;;;16.15;;
56435;SDS011;42335;44.872;20.658;2024-03-22T09:34:04;25.58;;;17.33;;
56435;SDS011;42335;44.872;20.658;2024-03-22T09:36:30;30.45;;;16.77;;
56435;SDS011;42335;44.872;20.658;2024-03-22T09:39:00;29.08;;;17.60;;
56435;SDS011;42335;44.872;20.658;2024-03-22T09:41:27;27.08;;;17.20;;
56435;SDS011;42335;44.872;20.658;2024-03-22T09:43:56;31.60;;;17.08;;
56435;SDS011;42335;44.872;20.658;2024-03-22T09:46:24;30.67;;;17.33;;
56435;SDS011;42335;44.872;20.658;2024-03-22T09:48:50;26.65;;;16.33;;
56435;SDS011;42335;44.872;20.658;2024-03-22T09:51:18;27.13;;;15.52;;
56435;SDS011;42335;44.872;20.658;2024-03-22T09:53:46;28.48;;;15.52;;
56435;SDS011;42335;44.872;20.658;2024-03-22T09:56:17;29.10;;;16.08;;
56435;SDS011;42335;44.872;20.658;2024-03-22T09:58:46;30.98;;;17.33;;
56435;SDS011;42335;44.872;20.658;2024-03-22T10:01:12;30.55;;;18.08;;
56435;SDS011;42335;44.872;20.658;2024-03-22T10:03:39;25.60;;;17.05;;
56435;SDS011;42335;44.872;20.658;2024-03-22T10:06:05;25.95;;;17.73;;
56435;SDS011;42335;44.872;20.658;2024-03-22T10:08:31;30.67;;;17.88;;
56435;SDS011;42335;44.872;20.658;2024-03-22T10:10:57;26.90;;;18.33;;
56435;SDS011;42335;44.872;20.658;2024-03-22T10:13:26;27.15;;;19.10;;
56435;SDS011;42335;44.872;20.658;2024-03-22T10:15:53;30.88;;;18.63;;
56435;SDS011;42335;44.872;20.658;2024-03-22T10:18:19;27.40;;;17.67;;
56435;SDS011;42335;44.872;20.658;2024-03-22T10:20:45;34.50;;;17.58;;
56435;SDS011;42335;44.872;20.658;2024-03-22T10:23:10;29.40;;;17.60;;
56435;SDS011;42335;44.872;20.658;2024-03-22T10:25:36;29.00;;;19.73;;
56435;SDS011;42335;44.872;20.658;2024-03-22T10:28:02;27.77;;;17.58;;
56435;SDS011;42335;44.872;20.658;2024-03-22T10:30:29;30.45;;;19.27;;
56435;SDS011;42335;44.872;20.658;2024-03-22T10:32:56;32.15;;;20.35;;
56435;SDS011;42335;44.872;20.658;2024-03-22T10:35:22;29.10;;;20.20;;
56435;SDS011;42335;44.872;20.658;2024-03-22T10:37:49;27.95;;;19.17;;
56435;SDS011;42335;44.872;20.658;2024-03-22T10:40:16;31.90;;;19.83;;
56435;SDS011;42335;44.872;20.658;2024-03-22T10:42:42;32.92;;;19.95;;
56435;SDS011;42335;44.872;20.658;2024-03-22T10:45:10;38.92;;;21.30;;
56435;SDS011;42335;44.872;20.658;2024-03-22T10:47:37;33.38;;;21.10;;
56435;SDS011;42335;44.872;20.658;2024-03-22T10:50:10;38.72;;;19.35;;
56435;SDS011;42335;44.872;20.658;2024-03-22T10:55:22;33.13;;;19.98;;
56435;SDS011;42335;44.872;20.658;2024-03-22T10:57:59;33.92;;;19.48;;
56435;SDS011;42335;44.872;20.658;2024-03-22T11:00:28;27.08;;;18.92;;
56435;SDS011;42335;44.872;20.658;2024-03-22T11:02:55;26.23;;;18.67;;
56435;SDS011;42335;44.872;20.658;2024-03-22T11:05:21;27.58;;;18.80;;
56435;SDS011;42335;44.872;20.658;2024-03-22T11:07:47;26.60;;;17.48;;
56435;SDS011;42335;44.872;20.658;2024-03-22T11:10:25;26.55;;;17.15;;
56435;SDS011;42335;44.872;20.658;2024-03-22T11:13:03;27.80;;;17.23;;
56435;SDS011;42335;44.872;20.658;2024-03-22T11:15:30;27.08;;;17.17;;
56435;SDS011;42335;44.872;20.658;2024-03-22T11:17:57;23.60;;;15.13;;
56435;SDS011;42335;44.872;20.658;2024-03-22T11:20:24;24.70;;;15.25;;
56435;SDS011;42335;44.872;20.658;2024-03-22T11:22:51;20.20;;;14.50;;
56435;SDS011;42335;44.872;20.658;2024-03-22T11:25:17;23.58;;;14.77;;
56435;SDS011;42335;44.872;20.658;2024-03-22T11:27:44;21.02;;;14.80;;
56435;SDS011;42335;44.872;20.658;2024-03-22T11:30:11;20.40;;;13.50;;
56435;SDS011;42335;44.872;20.658;2024-03-22T11:32:37;19.88;;;13.77;;
56435;SDS011;42335;44.872;20.658;2024-03-22T11:35:10;21.90;;;13.57;;
56435;SDS011;42335;44.872;20.658;2024-03-22T11:37:40;21.13;;;14.32;;
56435;SDS011;42335;44.872;20.658;2024-03-22T11:40:09;21.90;;;14.63;;
56435;SDS011;42335;44.872;20.658;2024-03-22T11:42:39;23.30;;;13.70;;
56435;SDS011;42335;44.872;20.658;2024-03-22T11:45:08;23.30;;;14.32;;
56435;SDS011;42335;44.872;20.658;2024-03-22T11:47:36;23.33;;;14.60;;
56435;SDS011;42335;44.872;20.658;2024-03-22T11:50:02;24.10;;;14.93;;
56435;SDS011;42335;44.872;20.658;2024-03-22T11:52:29;21.50;;;14.50;;
56435;SDS011;42335;44.872;20.658;2024-03-22T11:54:55;22.40;;;14.75;;
56435;SDS011;42335;44.872;20.658;2024-03-22T11:57:22;21.55;;;13.38;;
56435;SDS011;42335;44.872;20.658;2024-03-22T11:59:48;19.48;;;12.73;;
56435;SDS011;42335;44.872;20.658;2024-03-22T12:02:15;22.98;;;14.15;;
56435;SDS011;42335;44.872;20.658;2024-03-22T12:04:44;23.30;;;14.43;;
56435;SDS011;42335;44.872;20.658;2024-03-22T12:07:15;19.88;;;12.73;;
56435;SDS011;42335;44.872;20.658;2024-03-22T12:09:42;24.65;;;12.88;;
56435;SDS011;42335;44.872;20.658;2024-03-22T12:12:09;22.08;;;13.20;;
56435;SDS011;42335;44.872;20.658;2024-03-22T12:14:37;22.40;;;13.75;;
56435;SDS011;42335;44.872;20.658;2024-03-22T12:17:06;20.63;;;13.82;;
56435;SDS011;42335;44.872;20.658;2024-03-22T12:19:33;21.20;;;13.50;;
56435;SDS011;42335;44.872;20.658;2024-03-22T12:21:59;19.58;;;11.93;;
56435;SDS011;42335;44.872;20.658;2024-03-22T12:24:25;19.30;;;13.65;;
56435;SDS011;42335;44.872;20.658;2024-03-22T12:26:55;21.45;;;12.68;;
56435;SDS011;42335;44.872;20.658;2024-03-22T12:29:20;17.95;;;12.73;;
56435;SDS011;42335;44.872;20.658;2024-03-22T12:31:46;22.67;;;13.30;;
56435;SDS011;42335;44.872;20.658;2024-03-22T12:34:13;20.05;;;12.90;;
56435;SDS011;42335;44.872;20.658;2024-03-22T12:36:39;19.35;;;13.18;;
56435;SDS011;42335;44.872;20.658;2024-03-22T12:39:05;22.63;;;12.98;;
56435;SDS011;42335;44.872;20.658;2024-03-22T12:41:31;19.50;;;12.75;;
56435;SDS011;42335;44.872;20.658;2024-03-22T12:43:58;17.75;;;12.25;;
56435;SDS011;42335;44.872;20.658;2024-03-22T12:46:24;21.55;;;14.00;;
56435;SDS011;42335;44.872;20.658;2024-03-22T12:48:50;23.60;;;14.95;;
56435;SDS011;42335;44.872;20.658;2024-03-22T12:51:16;20.63;;;12.98;;
56435;SDS011;42335;44.872;20.658;2024-03-22T12:53:42;18.73;;;11.88;;
56435;SDS011;42335;44.872;20.658;2024-03-22T12:56:08;16.63;;;11.65;;
56435;SDS011;42335;44.872;20.658;2024-03-22T12:58:34;19.17;;;10.75;;
56435;SDS011;42335;44.872;20.658;2024-03-22T13:01:00;17.25;;;12.00;;
56435;SDS011;42335;44.872;20.658;2024-03-22T13:03:27;17.73;;;11.65;;
56435;SDS011;42335;44.872;20.658;2024-03-22T13:05:53;22.30;;;11.30;;
56435;SDS011;42335;44.872;20.658;2024-03-22T13:08:19;16.80;;;11.77;;
56435;SDS011;42335;44.872;20.658;2024-03-22T13:10:46;17.42;;;11.55;;
56435;SDS011;42335;44.872;20.658;2024-03-22T13:13:13;17.10;;;12.02;;
56435;SDS011;42335;44.872;20.658;2024-03-22T13:15:41;18.13;;;11.60;;
56435;SDS011;42335;44.872;20.658;2024-03-22T13:18:12;19.67;;;12.13;;
56435;SDS011;42335;44.872;20.658;2024-03-22T13:20:38;20.92;;;11.52;;
56435;SDS011;42335;44.872;20.658;2024-03-22T13:23:04;16.95;;;10.55;;
56435;SDS011;42335;44.872;20.658;2024-03-22T13:25:30;17.70;;;10.75;;
56435;SDS011;42335;44.872;20.658;2024-03-22T13:27:57;14.50;;;10.90;;
56435;SDS011;42335;44.872;20.658;2024-03-22T13:30:23;17.30;;;10.25;;
56435;SDS011;42335;44.872;20.658;2024-03-22T13:32:49;18.98;;;10.15;;
56435;SDS011;42335;44.872;20.658;2024-03-22T13:35:14;19.83;;;10.73;;
56435;SDS011;42335;44.872;20.658;2024-03-22T13:37:40;21.42;;;12.93;;
56435;SDS011;42335;44.872;20.658;2024-03-22T13:40:07;20.88;;;11.45;;
56435;SDS011;42335;44.872;20.658;2024-03-22T13:42:33;21.50;;;10.93;;
56435;SDS011;42335;44.872;20.658;2024-03-22T13:44:59;17.00;;;12.00;;
56435;SDS011;42335;44.872;20.658;2024-03-22T13:47:26;25.00;;;13.10;;
56435;SDS011;42335;44.872;20.658;2024-03-22T13:49:53;27.27;;;11.70;;
56435;SDS011;42335;44.872;20.658;2024-03-22T13:52:19;18.75;;;11.88;;
56435;SDS011;42335;44.872;20.658;2024-03-22T13:54:46;24.02;;;12.15;;
56435;SDS011;42335;44.872;20.658;2024-03-22T13:57:12;26.38;;;12.48;;
56435;SDS011;42335;44.872;20.658;2024-03-22T13:59:38;19.40;;;12.13;;
56435;SDS011;42335;44.872;20.658;2024-03-22T14:02:05;21.27;;;13.45;;
56435;SDS011;42335;44.872;20.658;2024-03-22T14:04:32;14.63;;;11.40;;
56435;SDS011;42335;44.872;20.658;2024-03-22T14:06:59;16.90;;;10.88;;
56435;SDS011;42335;44.872;20.658;2024-03-22T14:09:29;15.32;;;10.73;;